createdAt,value
2018-12-04T00:00:32.768Z,995.55
2018-12-04T00:01:32.819Z,995.53
2018-12-04T00:02:32.905Z,995.57
2018-12-04T00:03:32.983Z,995.54
2018-12-04T00:04:33.064Z,995.51
2018-12-04T00:05:33.228Z,995.54
2018-12-04T00:06:33.255Z,995.48
2018-12-04T00:07:33.327Z,995.55
2018-12-04T00:08:33.409Z,995.49
2018-12-04T00:09:33.487Z,995.51
2018-12-04T00:10:33.578Z,995.55
2018-12-04T00:11:33.653Z,995.57
2018-12-04T00:12:33.732Z,995.52
2018-12-04T00:13:33.817Z,995.68
2018-12-04T00:14:33.902Z,995.61
2018-12-04T00:15:33.995Z,995.64
2018-12-04T00:16:34.094Z,995.59
2018-12-04T00:17:34.161Z,995.58
2018-12-04T00:18:34.247Z,995.56
2018-12-04T00:19:34.331Z,995.61
2018-12-04T00:20:34.422Z,995.66
2018-12-04T00:21:34.524Z,995.63
2018-12-04T00:22:34.575Z,995.58
2018-12-04T00:23:34.658Z,995.62
2018-12-04T00:24:34.739Z,995.69
2018-12-04T00:25:34.835Z,995.68
2018-12-04T00:26:34.897Z,995.65
2018-12-04T00:27:34.979Z,995.66
2018-12-04T00:28:35.075Z,995.67
2018-12-04T00:29:35.148Z,995.67
2018-12-04T00:30:35.241Z,995.76
2018-12-04T00:31:35.307Z,995.69
2018-12-04T00:32:35.402Z,995.76
2018-12-04T00:33:35.477Z,995.71
2018-12-04T00:34:35.557Z,995.78
2018-12-04T00:35:35.651Z,995.77
2018-12-04T00:36:35.722Z,995.83
2018-12-04T00:37:35.817Z,995.82
2018-12-04T00:38:35.889Z,995.86
2018-12-04T00:39:35.983Z,995.79
2018-12-04T00:40:36.069Z,995.81
2018-12-04T00:41:36.146Z,995.84
2018-12-04T00:42:36.220Z,995.80
2018-12-04T00:43:36.308Z,995.91
2018-12-04T00:44:36.382Z,995.88
2018-12-04T00:45:36.494Z,995.87
2018-12-04T00:46:36.557Z,995.86
2018-12-04T00:47:36.625Z,995.89
2018-12-04T00:48:36.717Z,995.92
2018-12-04T00:49:36.803Z,995.92
2018-12-04T00:50:36.912Z,995.94
2018-12-04T00:51:37.006Z,996.00
2018-12-04T00:52:37.048Z,995.98
2018-12-04T00:53:37.130Z,996.01
2018-12-04T00:54:37.219Z,995.99
2018-12-04T00:55:37.306Z,996.05
2018-12-04T00:56:37.385Z,996.07
2018-12-04T00:57:37.469Z,996.08
2018-12-04T00:58:37.541Z,996.06
2018-12-04T00:59:37.617Z,996.03
2018-12-04T01:00:37.716Z,996.04
2018-12-04T01:01:37.798Z,996.13
2018-12-04T01:02:37.880Z,996.04
2018-12-04T01:03:37.979Z,996.11
2018-12-04T01:04:38.058Z,996.13
2018-12-04T01:05:38.136Z,996.10
2018-12-04T01:06:38.243Z,996.20
2018-12-04T01:07:38.293Z,996.18
2018-12-04T01:08:38.380Z,996.16
2018-12-04T01:09:38.458Z,996.20
2018-12-04T01:10:38.546Z,996.18
2018-12-04T01:11:38.650Z,996.20
2018-12-04T01:12:38.709Z,996.27
2018-12-04T01:13:38.790Z,996.24
2018-12-04T01:14:38.882Z,996.22
2018-12-04T01:15:38.957Z,996.25
2018-12-04T01:16:39.040Z,996.26
2018-12-04T01:17:39.127Z,996.21
2018-12-04T01:18:39.202Z,996.24
2018-12-04T01:19:39.286Z,996.22
2018-12-04T01:20:39.385Z,996.19
2018-12-04T01:21:39.456Z,996.20
2018-12-04T01:22:39.551Z,996.21
2018-12-04T01:23:39.626Z,996.17
2018-12-04T01:24:39.702Z,996.20
2018-12-04T01:25:39.778Z,996.21
2018-12-04T01:26:39.878Z,996.23
2018-12-04T01:27:39.945Z,996.18
2018-12-04T01:28:40.024Z,996.21
2018-12-04T01:29:40.162Z,996.24
2018-12-04T01:30:40.182Z,996.24
2018-12-04T01:31:40.284Z,996.32
2018-12-04T01:32:40.355Z,996.28
2018-12-04T01:33:40.432Z,996.28
2018-12-04T01:34:40.521Z,996.27
2018-12-04T01:35:40.598Z,996.32
2018-12-04T01:36:40.698Z,996.29
2018-12-04T01:37:40.770Z,996.31
2018-12-04T01:38:40.848Z,996.26
2018-12-04T01:39:40.932Z,996.27
2018-12-04T01:40:41.064Z,996.26
2018-12-04T01:41:41.098Z,996.26
2018-12-04T01:42:41.164Z,996.24
2018-12-04T01:43:41.323Z,996.28
2018-12-04T01:44:43.154Z,996.27
2018-12-04T01:45:42.222Z,996.26
2018-12-04T01:46:42.087Z,996.23
2018-12-04T01:47:42.159Z,996.24
2018-12-04T01:48:42.232Z,996.20
2018-12-04T01:49:42.315Z,996.19
2018-12-04T01:50:42.415Z,996.24
2018-12-04T01:51:42.539Z,996.32
2018-12-04T01:52:42.568Z,996.21
2018-12-04T01:53:42.646Z,996.19
2018-12-04T01:54:42.733Z,996.25
2018-12-04T01:55:42.821Z,996.22
2018-12-04T01:56:42.913Z,996.22
2018-12-04T01:57:42.973Z,996.20
2018-12-04T01:58:43.063Z,996.21
2018-12-04T01:59:43.138Z,996.24
2018-12-04T02:00:43.223Z,996.23
2018-12-04T02:01:43.315Z,996.24
2018-12-04T02:02:43.427Z,996.28
2018-12-04T02:03:43.513Z,996.26
2018-12-04T02:04:43.584Z,996.27
2018-12-04T02:05:43.672Z,996.28
2018-12-04T02:06:43.789Z,996.21
2018-12-04T02:07:43.897Z,996.24
2018-12-04T02:08:43.919Z,996.21
2018-12-04T02:09:44.004Z,996.17
2018-12-04T02:10:44.185Z,996.21
2018-12-04T02:11:44.274Z,996.24
2018-12-04T02:12:44.354Z,996.23
2018-12-04T02:13:44.423Z,996.27
2018-12-04T02:14:44.508Z,996.30
2018-12-04T02:15:44.592Z,996.30
2018-12-04T02:16:44.681Z,996.31
2018-12-04T02:17:44.760Z,996.29
2018-12-04T02:18:44.843Z,996.37
2018-12-04T02:19:44.920Z,996.38
2018-12-04T02:20:45.001Z,996.30
2018-12-04T02:21:45.108Z,996.25
2018-12-04T02:22:45.157Z,996.32
2018-12-04T02:23:45.249Z,996.26
2018-12-04T02:24:45.335Z,996.30
2018-12-04T02:25:45.416Z,996.29
2018-12-04T02:26:45.527Z,996.34
2018-12-04T02:27:45.580Z,996.34
2018-12-04T02:28:45.666Z,996.35
2018-12-04T02:29:45.760Z,996.37
2018-12-04T02:30:45.832Z,996.34
2018-12-04T02:31:45.970Z,996.32
2018-12-04T02:32:46.010Z,996.34
2018-12-04T02:33:46.096Z,996.40
2018-12-04T02:34:46.180Z,996.43
2018-12-04T02:35:46.270Z,996.41
2018-12-04T02:36:46.348Z,996.51
2018-12-04T02:37:46.432Z,996.47
2018-12-04T02:38:46.504Z,996.47
2018-12-04T02:39:46.590Z,996.46
2018-12-04T02:40:46.673Z,996.54
2018-12-04T02:41:46.758Z,996.50
2018-12-04T02:42:46.876Z,996.49
2018-12-04T02:43:46.927Z,996.54
2018-12-04T02:44:47.008Z,996.63
2018-12-04T02:45:47.082Z,996.60
2018-12-04T02:46:47.178Z,996.58
2018-12-04T02:47:47.308Z,996.59
2018-12-04T02:48:47.323Z,996.65
2018-12-04T02:49:47.454Z,996.61
2018-12-04T02:50:47.491Z,996.66
2018-12-04T02:51:47.603Z,996.68
2018-12-04T02:52:47.676Z,996.70
2018-12-04T02:53:47.772Z,996.65
2018-12-04T02:54:47.838Z,996.68
2018-12-04T02:55:47.914Z,996.67
2018-12-04T02:56:48.002Z,996.71
2018-12-04T02:57:48.090Z,996.64
2018-12-04T02:58:48.161Z,996.68
2018-12-04T02:59:48.242Z,996.69
2018-12-04T03:00:48.323Z,996.72
2018-12-04T03:01:48.410Z,996.75
2018-12-04T03:02:48.502Z,996.84
2018-12-04T03:03:48.572Z,996.86
2018-12-04T03:04:48.656Z,996.91
2018-12-04T03:05:48.740Z,996.91
2018-12-04T03:06:48.826Z,997.02
2018-12-04T03:07:48.913Z,996.93
2018-12-04T03:08:49.025Z,996.94
2018-12-04T03:09:49.081Z,997.06
2018-12-04T03:10:49.150Z,997.04
2018-12-04T03:11:49.232Z,997.04
2018-12-04T03:12:49.329Z,997.05
2018-12-04T03:13:49.389Z,997.11
2018-12-04T03:14:49.481Z,997.17
2018-12-04T03:15:49.571Z,997.22
2018-12-04T03:16:49.666Z,997.27
2018-12-04T03:17:49.754Z,997.28
2018-12-04T03:18:49.825Z,997.41
2018-12-04T03:19:49.913Z,997.46
2018-12-04T03:20:49.997Z,997.45
2018-12-04T03:21:50.064Z,997.47
2018-12-04T03:22:50.166Z,997.55
2018-12-04T03:23:50.230Z,997.61
2018-12-04T03:24:50.308Z,997.53
2018-12-04T03:25:50.397Z,997.63
2018-12-04T03:26:50.476Z,997.61
2018-12-04T03:27:50.562Z,997.66
2018-12-04T03:28:50.640Z,997.69
2018-12-04T03:29:50.717Z,997.76
2018-12-04T03:30:50.821Z,997.75
2018-12-04T03:31:50.903Z,997.80
2018-12-04T03:32:51.005Z,997.79
2018-12-04T03:33:51.051Z,997.93
2018-12-04T03:34:51.133Z,998.15
2018-12-04T03:35:51.227Z,998.02
2018-12-04T03:36:51.334Z,998.11
2018-12-04T03:37:51.395Z,998.08
2018-12-04T03:38:51.467Z,998.06
2018-12-04T03:39:51.608Z,998.21
2018-12-04T03:40:51.628Z,998.17
2018-12-04T03:41:51.720Z,998.25
2018-12-04T03:42:51.814Z,998.29
2018-12-04T03:43:51.884Z,998.29
2018-12-04T03:44:51.998Z,998.33
2018-12-04T03:45:52.038Z,998.27
2018-12-04T03:46:52.125Z,998.40
2018-12-04T03:47:52.251Z,998.47
2018-12-04T03:48:52.286Z,998.47
2018-12-04T03:49:52.364Z,998.42
2018-12-04T03:50:52.463Z,998.55
2018-12-04T03:51:52.531Z,998.53
2018-12-04T03:52:52.629Z,998.49
2018-12-04T03:53:52.692Z,998.58
2018-12-04T03:54:52.787Z,998.61
2018-12-04T03:55:52.863Z,998.62
2018-12-04T03:56:52.955Z,998.66
2018-12-04T03:57:53.044Z,998.75
2018-12-04T03:58:53.124Z,998.75
2018-12-04T03:59:53.209Z,998.73
2018-12-04T04:00:53.287Z,998.82
2018-12-04T04:01:53.376Z,998.89
2018-12-04T04:02:53.464Z,998.87
2018-12-04T04:03:53.531Z,998.89
2018-12-04T04:04:53.628Z,998.90
2018-12-04T04:05:53.697Z,998.98
2018-12-04T04:06:53.781Z,999.00
2018-12-04T04:07:53.890Z,999.01
2018-12-04T04:08:53.952Z,999.08
2018-12-04T04:09:54.028Z,999.05
2018-12-04T04:10:54.123Z,999.05
2018-12-04T04:11:54.199Z,999.05
2018-12-04T04:12:54.293Z,999.10
2018-12-04T04:13:54.376Z,999.13
2018-12-04T04:14:54.450Z,999.20
2018-12-04T04:15:54.547Z,999.21
2018-12-04T04:16:54.609Z,999.20
2018-12-04T04:17:54.714Z,999.28
2018-12-04T04:18:54.782Z,999.25
2018-12-04T04:19:54.860Z,999.24
2018-12-04T04:20:54.970Z,999.36
2018-12-04T04:21:55.062Z,999.27
2018-12-04T04:22:55.172Z,999.32
2018-12-04T04:23:55.228Z,999.32
2018-12-04T04:24:55.318Z,999.37
2018-12-04T04:25:55.387Z,999.30
2018-12-04T04:26:56.803Z,999.37
2018-12-04T04:27:56.855Z,999.35
2018-12-04T04:28:55.889Z,999.40
2018-12-04T04:29:55.955Z,999.43
2018-12-04T04:30:56.094Z,999.48
2018-12-04T04:31:56.137Z,999.55
2018-12-04T04:32:56.224Z,999.50
2018-12-04T04:33:56.317Z,999.56
2018-12-04T04:34:56.375Z,999.60
2018-12-04T04:35:56.455Z,999.58
2018-12-04T04:36:56.542Z,999.61
2018-12-04T04:37:56.618Z,999.60
2018-12-04T04:38:56.722Z,999.63
2018-12-04T04:39:56.801Z,999.71
2018-12-04T04:40:56.878Z,999.65
2018-12-04T04:41:56.957Z,999.73
2018-12-04T04:42:57.042Z,999.70
2018-12-04T04:43:57.133Z,999.76
2018-12-04T04:44:57.215Z,999.77
2018-12-04T04:45:57.293Z,999.83
2018-12-04T04:46:57.371Z,999.86
2018-12-04T04:47:57.457Z,999.87
2018-12-04T04:48:57.543Z,999.91
2018-12-04T04:49:57.629Z,999.90
2018-12-04T04:50:57.711Z,1000.02
2018-12-04T04:51:57.790Z,1000.02
2018-12-04T04:52:57.861Z,1000.01
2018-12-04T04:53:57.982Z,1000.11
2018-12-04T04:54:58.035Z,1000.07
2018-12-04T04:55:58.122Z,1000.08
2018-12-04T04:56:58.196Z,1000.08
2018-12-04T04:57:58.268Z,1000.18
2018-12-04T04:58:58.366Z,1000.17
2018-12-04T04:59:58.431Z,1000.18
2018-12-04T05:00:58.519Z,1000.24
2018-12-04T05:01:58.618Z,1000.29
2018-12-04T05:02:58.690Z,1000.25
2018-12-04T05:03:58.789Z,1000.30
2018-12-04T05:04:58.867Z,1000.31
2018-12-04T05:05:58.958Z,1000.36
2018-12-04T05:06:59.021Z,1000.45
2018-12-04T05:07:59.105Z,1000.45
2018-12-04T05:08:59.197Z,1000.47
2018-12-04T05:09:59.263Z,1000.57
2018-12-04T05:10:59.353Z,1000.64
2018-12-04T05:11:59.440Z,1000.64
2018-12-04T05:12:59.529Z,1000.75
2018-12-04T05:13:59.601Z,1000.70
2018-12-04T05:14:59.686Z,1000.71
2018-12-04T05:15:59.771Z,1000.83
2018-12-04T05:16:59.849Z,1000.78
2018-12-04T05:17:59.927Z,1000.84
2018-12-04T05:19:00.018Z,1000.81
2018-12-04T05:20:00.109Z,1000.88
2018-12-04T05:21:00.169Z,1000.92
2018-12-04T05:22:00.255Z,1001.00
2018-12-04T05:23:00.347Z,1001.02
2018-12-04T05:24:00.426Z,1000.98
2018-12-04T05:25:00.501Z,1001.13
2018-12-04T05:26:00.582Z,1001.09
2018-12-04T05:27:00.658Z,1001.14
2018-12-04T05:28:00.752Z,1001.12
2018-12-04T05:29:00.867Z,1001.18
2018-12-04T05:30:00.916Z,1001.17
2018-12-04T05:31:00.998Z,1001.18
2018-12-04T05:32:01.100Z,1001.24
2018-12-04T05:33:01.180Z,1001.32
2018-12-04T05:34:01.286Z,1001.26
2018-12-04T05:35:01.348Z,1001.37
2018-12-04T05:36:01.429Z,1001.29
2018-12-04T05:37:01.524Z,1001.39
2018-12-04T05:38:01.600Z,1001.42
2018-12-04T05:39:01.683Z,1001.43
2018-12-04T05:40:01.765Z,1001.50
2018-12-04T05:41:01.826Z,1001.49
2018-12-04T05:42:01.915Z,1001.43
2018-12-04T05:43:01.997Z,1001.56
2018-12-04T05:44:02.076Z,1001.55
2018-12-04T05:45:02.168Z,1001.57
2018-12-04T05:46:02.242Z,1001.63
2018-12-04T05:47:02.318Z,1001.70
2018-12-04T05:48:02.405Z,1001.73
2018-12-04T05:49:02.484Z,1001.77
2018-12-04T05:50:02.561Z,1001.77
2018-12-04T05:51:02.645Z,1001.83
2018-12-04T05:52:02.728Z,1001.80
2018-12-04T05:53:02.811Z,1001.93
2018-12-04T05:54:02.915Z,1001.88
2018-12-04T05:55:02.974Z,1001.96
2018-12-04T05:56:03.060Z,1001.94
2018-12-04T05:57:03.141Z,1001.97
2018-12-04T05:58:03.220Z,1002.03
2018-12-04T05:59:03.316Z,1002.04
2018-12-04T06:00:03.399Z,1002.07
2018-12-04T06:01:03.471Z,1002.15
2018-12-04T06:02:03.550Z,1002.14
2018-12-04T06:03:03.641Z,1002.12
2018-12-04T06:04:03.751Z,1002.22
2018-12-04T06:05:03.800Z,1002.21
2018-12-04T06:06:03.870Z,1002.24
2018-12-04T06:07:03.956Z,1002.31
2018-12-04T06:08:04.039Z,1002.32
2018-12-04T06:09:04.159Z,1002.38
2018-12-04T06:10:04.212Z,1002.38
2018-12-04T06:11:04.287Z,1002.47
2018-12-04T06:12:04.387Z,1002.38
2018-12-04T06:13:04.474Z,1002.47
2018-12-04T06:14:04.593Z,1002.42
2018-12-04T06:15:04.656Z,1002.46
2018-12-04T06:16:04.717Z,1002.54
2018-12-04T06:17:04.802Z,1002.53
2018-12-04T06:18:04.876Z,1002.56
2018-12-04T06:19:04.971Z,1002.59
2018-12-04T06:20:05.056Z,1002.61
2018-12-04T06:21:05.149Z,1002.60
2018-12-04T06:22:05.227Z,1002.65
2018-12-04T06:23:05.311Z,1002.67
2018-12-04T06:24:05.384Z,1002.66
2018-12-04T06:25:05.496Z,1002.70
2018-12-04T06:26:05.566Z,1002.75
2018-12-04T06:27:05.634Z,1002.76
2018-12-04T06:28:05.721Z,1002.76
2018-12-04T06:29:05.796Z,1002.84
2018-12-04T06:30:05.888Z,1002.91
2018-12-04T06:31:05.954Z,1002.83
2018-12-04T06:32:06.033Z,1002.87
2018-12-04T06:33:06.119Z,1002.87
2018-12-04T06:34:06.221Z,1002.87
2018-12-04T06:35:06.315Z,1002.86
2018-12-04T06:36:06.375Z,1002.89
2018-12-04T06:37:06.885Z,1002.85
2018-12-04T06:38:06.542Z,1003.00
2018-12-04T06:39:06.619Z,1002.99
2018-12-04T06:40:06.721Z,1003.00
2018-12-04T06:41:06.789Z,1002.98
2018-12-04T06:42:06.867Z,1003.13
2018-12-04T06:43:06.953Z,1003.11
2018-12-04T06:44:07.045Z,1003.18
2018-12-04T06:45:07.120Z,1003.21
2018-12-04T06:46:07.207Z,1003.20
2018-12-04T06:47:07.285Z,1003.21
2018-12-04T06:48:07.355Z,1003.29
2018-12-04T06:49:07.437Z,1003.22
2018-12-04T06:50:07.556Z,1003.35
2018-12-04T06:51:07.632Z,1003.42
2018-12-04T06:52:07.722Z,1003.41
2018-12-04T06:53:07.791Z,1003.47
2018-12-04T06:54:07.870Z,1003.45
2018-12-04T06:55:07.971Z,1003.49
2018-12-04T06:56:08.032Z,1003.56
2018-12-04T06:57:08.112Z,1003.55
2018-12-04T06:58:08.227Z,1003.60
2018-12-04T06:59:08.285Z,1003.62
2018-12-04T07:00:08.381Z,1003.64
2018-12-04T07:01:08.471Z,1003.69
2018-12-04T07:02:08.538Z,1003.63
2018-12-04T07:03:08.615Z,1003.77
2018-12-04T07:04:08.723Z,1003.74
2018-12-04T07:05:08.791Z,1003.79
2018-12-04T07:06:08.856Z,1003.88
2018-12-04T07:07:08.946Z,1003.82
2018-12-04T07:08:09.019Z,1003.96
2018-12-04T07:09:09.119Z,1003.91
2018-12-04T07:10:09.207Z,1003.95
2018-12-04T07:11:09.279Z,1004.02
2018-12-04T07:12:09.364Z,1004.01
2018-12-04T07:13:09.436Z,1004.09
2018-12-04T07:14:09.527Z,1004.13
2018-12-04T07:15:09.628Z,1004.15
2018-12-04T07:16:09.689Z,1004.24
2018-12-04T07:17:09.770Z,1004.34
2018-12-04T07:18:09.882Z,1004.31
2018-12-04T07:19:09.939Z,1004.40
2018-12-04T07:20:10.029Z,1004.38
2018-12-04T07:21:10.106Z,1004.43
2018-12-04T07:22:10.185Z,1004.50
2018-12-04T07:23:10.275Z,1004.49
2018-12-04T07:24:10.349Z,1004.52
2018-12-04T07:25:10.444Z,1004.51
2018-12-04T07:26:10.505Z,1004.58
2018-12-04T07:27:10.592Z,1004.62
2018-12-04T07:28:10.716Z,1004.57
2018-12-04T07:29:10.751Z,1004.66
2018-12-04T07:30:10.843Z,1004.59
2018-12-04T07:31:10.920Z,1004.71
2018-12-04T07:32:11.006Z,1004.73
2018-12-04T07:33:11.086Z,1004.76
2018-12-04T07:34:11.173Z,1004.75
2018-12-04T07:35:11.252Z,1004.83
2018-12-04T07:36:11.328Z,1004.84
2018-12-04T07:37:11.409Z,1004.86
2018-12-04T07:38:12.251Z,1004.89
2018-12-04T07:39:11.613Z,1004.95
2018-12-04T07:40:11.661Z,1004.89
2018-12-04T07:41:11.737Z,1004.91
2018-12-04T07:42:11.826Z,1005.05
2018-12-04T07:43:11.917Z,1005.06
2018-12-04T07:44:11.993Z,1005.05
2018-12-04T07:45:12.128Z,1005.15
2018-12-04T07:46:12.148Z,1005.19
2018-12-04T07:47:12.235Z,1005.26
2018-12-04T07:48:12.412Z,1005.24
2018-12-04T07:49:12.421Z,1005.24
2018-12-04T07:50:12.531Z,1005.30
2018-12-04T07:51:12.563Z,1005.39
2018-12-04T07:52:12.644Z,1005.38
2018-12-04T07:53:12.723Z,1005.42
2018-12-04T07:54:12.802Z,1005.39
2018-12-04T07:55:12.923Z,1005.44
2018-12-04T07:56:13.020Z,1005.51
2018-12-04T07:57:13.061Z,1005.55
2018-12-04T07:58:13.121Z,1005.59
2018-12-04T07:59:13.215Z,1005.58
2018-12-04T08:00:13.291Z,1005.64
2018-12-04T08:01:13.417Z,1005.69
2018-12-04T08:02:13.460Z,1005.69
2018-12-04T08:03:13.546Z,1005.68
2018-12-04T08:04:13.625Z,1005.70
2018-12-04T08:05:13.722Z,1005.74
2018-12-04T08:06:13.797Z,1005.77
2018-12-04T08:07:13.879Z,1005.74
2018-12-04T08:08:14.020Z,1005.72
2018-12-04T08:09:14.084Z,1005.74
2018-12-04T08:10:14.167Z,1005.81
2018-12-04T08:11:14.248Z,1005.86
2018-12-04T08:12:14.357Z,1005.89
2018-12-04T08:13:14.427Z,1005.95
2018-12-04T08:14:14.489Z,1005.91
2018-12-04T08:15:14.578Z,1005.91
2018-12-04T08:16:14.658Z,1005.99
2018-12-04T08:17:14.752Z,1006.11
2018-12-04T08:18:14.840Z,1006.13
2018-12-04T08:19:14.926Z,1006.12
2018-12-04T08:20:14.982Z,1006.05
2018-12-04T08:21:15.070Z,1006.22
2018-12-04T08:22:15.199Z,1006.08
2018-12-04T08:23:15.229Z,1006.16
2018-12-04T08:24:15.309Z,1006.12
2018-12-04T08:25:15.389Z,1006.13
2018-12-04T08:26:15.480Z,1006.20
2018-12-04T08:27:15.588Z,1006.26
2018-12-04T08:28:15.642Z,1006.22
2018-12-04T08:29:15.720Z,1006.34
2018-12-04T08:30:15.814Z,1006.29
2018-12-04T08:31:15.901Z,1006.29
2018-12-04T08:32:15.981Z,1006.33
2018-12-04T08:33:16.075Z,1006.32
2018-12-04T08:34:16.132Z,1006.32
2018-12-04T08:35:16.209Z,1006.33
2018-12-04T08:36:16.331Z,1006.36
2018-12-04T08:37:16.379Z,1006.47
2018-12-04T08:38:16.465Z,1006.51
2018-12-04T08:39:16.545Z,1006.45
2018-12-04T08:40:16.637Z,1006.55
2018-12-04T08:41:16.738Z,1006.62
2018-12-04T08:42:16.820Z,1006.62
2018-12-04T08:43:16.870Z,1006.55
2018-12-04T08:44:16.963Z,1006.62
2018-12-04T08:45:17.036Z,1006.68
2018-12-04T08:46:17.121Z,1006.69
2018-12-04T08:47:17.594Z,1006.72
2018-12-04T08:48:17.286Z,1006.75
2018-12-04T08:49:17.379Z,1006.79
2018-12-04T08:50:17.454Z,1006.76
2018-12-04T08:51:17.537Z,1006.78
2018-12-04T08:52:17.632Z,1006.83
2018-12-04T08:53:17.710Z,1006.89
2018-12-04T08:54:17.805Z,1006.86
2018-12-04T08:55:17.867Z,1006.87
2018-12-04T08:56:17.963Z,1006.97
2018-12-04T08:57:18.045Z,1007.03
2018-12-04T08:58:18.173Z,1006.99
2018-12-04T08:59:18.195Z,1007.05
2018-12-04T09:00:18.277Z,1007.06
2018-12-04T09:01:18.375Z,1007.08
2018-12-04T09:02:18.445Z,1007.08
2018-12-04T09:03:18.528Z,1007.08
2018-12-04T09:04:18.608Z,1007.12
2018-12-04T09:05:18.780Z,1007.16
2018-12-04T09:06:18.792Z,1007.18
2018-12-04T09:07:18.852Z,1007.20
2018-12-04T09:08:18.930Z,1007.21
2018-12-04T09:09:19.022Z,1007.24
2018-12-04T09:10:19.097Z,1007.27
2018-12-04T09:11:19.207Z,1007.28
2018-12-04T09:12:19.271Z,1007.30
2018-12-04T09:13:19.354Z,1007.41
2018-12-04T09:14:19.451Z,1007.39
2018-12-04T09:15:19.511Z,1007.47
2018-12-04T09:16:23.398Z,1007.50
2018-12-04T09:17:19.688Z,1007.54
2018-12-04T09:18:19.810Z,1007.58
2018-12-04T09:19:19.866Z,1007.60
2018-12-04T09:20:20.454Z,1007.67
2018-12-04T09:21:21.995Z,1007.68
2018-12-04T09:22:20.468Z,1007.72
2018-12-04T09:23:20.561Z,1007.72
2018-12-04T09:24:20.639Z,1007.80
2018-12-04T09:25:20.717Z,1007.86
2018-12-04T09:26:20.856Z,1007.85
2018-12-04T09:27:20.887Z,1007.83
2018-12-04T09:28:20.973Z,1007.78
2018-12-04T09:29:21.113Z,1007.91
2018-12-04T09:30:21.144Z,1007.89
2018-12-04T09:31:21.551Z,1007.92
2018-12-04T09:32:21.300Z,1007.90
2018-12-04T09:33:21.378Z,1007.95
2018-12-04T09:34:21.461Z,1007.87
2018-12-04T09:35:21.540Z,1007.87
2018-12-04T09:36:21.638Z,1007.99
2018-12-04T09:37:21.709Z,1007.94
2018-12-04T09:38:21.795Z,1008.00
2018-12-04T09:39:21.876Z,1007.96
2018-12-04T09:40:21.975Z,1008.05
2018-12-04T09:41:22.053Z,1008.01
2018-12-04T09:42:22.120Z,1008.04
2018-12-04T09:43:22.211Z,1008.04
2018-12-04T09:44:22.296Z,1008.01
2018-12-04T09:45:22.382Z,1008.02
2018-12-04T09:46:22.475Z,1007.97
2018-12-04T09:47:22.545Z,1008.00
2018-12-04T09:48:22.642Z,1008.07
2018-12-04T09:49:22.722Z,1008.04
2018-12-04T09:50:22.787Z,1007.97
2018-12-04T09:51:22.901Z,1007.99
2018-12-04T09:52:22.954Z,1008.08
2018-12-04T09:53:25.217Z,1008.03
2018-12-04T09:54:23.120Z,1008.01
2018-12-04T09:55:23.205Z,1008.01
2018-12-04T09:56:23.296Z,1008.08
2018-12-04T09:57:23.377Z,1008.05
2018-12-04T09:58:23.449Z,1008.08
2018-12-04T09:59:23.533Z,1008.19
2018-12-04T10:00:23.617Z,1008.12
2018-12-04T10:01:23.707Z,1008.14
2018-12-04T10:02:23.793Z,1008.11
2018-12-04T10:03:23.853Z,1008.13
2018-12-04T10:04:23.940Z,1008.15
2018-12-04T10:05:24.037Z,1008.13
2018-12-04T10:06:24.111Z,1008.16
2018-12-04T10:07:24.191Z,1008.11
2018-12-04T10:08:24.637Z,1008.17
2018-12-04T10:09:24.357Z,1008.24
2018-12-04T10:10:24.430Z,1008.24
2018-12-04T10:11:24.535Z,1008.23
2018-12-04T10:12:24.593Z,1008.18
2018-12-04T10:13:24.683Z,1008.22
2018-12-04T10:14:24.767Z,1008.29
2018-12-04T10:15:24.845Z,1008.24
2018-12-04T10:16:24.964Z,1008.29
2018-12-04T10:17:25.034Z,1008.27
2018-12-04T10:18:25.146Z,1008.33
2018-12-04T10:19:25.198Z,1008.34
2018-12-04T10:20:25.282Z,1008.32
2018-12-04T10:21:25.374Z,1008.38
2018-12-04T10:22:25.492Z,1008.41
2018-12-04T10:23:25.521Z,1008.42
2018-12-04T10:24:25.624Z,1008.42
2018-12-04T10:25:25.693Z,1008.47
2018-12-04T10:26:25.777Z,1008.50
2018-12-04T10:27:25.865Z,1008.51
2018-12-04T10:28:25.936Z,1008.57
2018-12-04T10:29:26.023Z,1008.55
2018-12-04T10:30:26.094Z,1008.50
2018-12-04T10:31:26.200Z,1008.58
2018-12-04T10:32:26.262Z,1008.56
2018-12-04T10:33:26.342Z,1008.55
2018-12-04T10:34:26.425Z,1008.49
2018-12-04T10:35:26.504Z,1008.54
2018-12-04T10:36:26.613Z,1008.53
2018-12-04T10:37:26.665Z,1008.64
2018-12-04T10:38:26.771Z,1008.64
2018-12-04T10:39:26.835Z,1008.62
2018-12-04T10:40:26.916Z,1008.63
2018-12-04T10:41:27.003Z,1008.68
2018-12-04T10:42:27.074Z,1008.70
2018-12-04T10:43:27.164Z,1008.71
2018-12-04T10:44:27.251Z,1008.61
2018-12-04T10:45:27.322Z,1008.72
2018-12-04T10:46:27.410Z,1008.74
2018-12-04T10:47:27.491Z,1008.69
2018-12-04T10:48:27.563Z,1008.74
2018-12-04T10:49:27.672Z,1008.77
2018-12-04T10:50:27.734Z,1008.77
2018-12-04T10:51:27.825Z,1008.81
2018-12-04T10:52:27.895Z,1008.84
2018-12-04T10:53:27.979Z,1008.94
2018-12-04T10:54:28.063Z,1008.87
2018-12-04T10:55:28.149Z,1008.88
2018-12-04T10:56:28.231Z,1008.88
2018-12-04T10:57:28.303Z,1008.85
2018-12-04T10:58:28.382Z,1008.86
2018-12-04T10:59:28.483Z,1008.88
2018-12-04T11:00:28.561Z,1008.90
2018-12-04T11:01:28.659Z,1008.90
2018-12-04T11:02:28.715Z,1008.90
2018-12-04T11:03:28.812Z,1008.91
2018-12-04T11:04:28.881Z,1008.92
2018-12-04T11:05:28.967Z,1009.02
2018-12-04T11:06:29.108Z,1008.94
2018-12-04T11:07:29.129Z,1008.99
2018-12-04T11:08:29.211Z,1009.03
2018-12-04T11:09:29.303Z,1009.10
2018-12-04T11:10:29.377Z,1009.11
2018-12-04T11:11:29.476Z,1009.18
2018-12-04T11:12:29.545Z,1009.15
2018-12-04T11:13:29.630Z,1009.23
2018-12-04T11:14:29.709Z,1009.17
2018-12-04T11:15:29.802Z,1009.26
2018-12-04T11:16:29.889Z,1009.26
2018-12-04T11:17:29.972Z,1009.24
2018-12-04T11:18:30.042Z,1009.22
2018-12-04T11:19:30.135Z,1009.16
2018-12-04T11:20:30.216Z,1009.21
2018-12-04T11:21:30.298Z,1009.18
2018-12-04T11:22:30.389Z,1009.25
2018-12-04T11:23:30.487Z,1009.23
2018-12-04T11:24:30.546Z,1009.19
2018-12-04T11:25:30.628Z,1009.24
2018-12-04T11:26:30.757Z,1009.31
2018-12-04T11:27:30.793Z,1009.26
2018-12-04T11:28:30.874Z,1009.24
2018-12-04T11:29:30.959Z,1009.31
2018-12-04T11:30:31.041Z,1009.31
2018-12-04T11:31:31.151Z,1009.37
2018-12-04T11:32:31.220Z,1009.40
2018-12-04T11:33:31.301Z,1009.38
2018-12-04T11:34:31.388Z,1009.39
2018-12-04T11:35:31.461Z,1009.38
2018-12-04T11:36:31.539Z,1009.40
2018-12-04T11:37:31.641Z,1009.46
2018-12-04T11:38:31.705Z,1009.44
2018-12-04T11:39:31.782Z,1009.42
2018-12-04T11:40:31.873Z,1009.48
2018-12-04T11:41:31.940Z,1009.50
2018-12-04T11:42:32.037Z,1009.51
2018-12-04T11:43:32.117Z,1009.57
2018-12-04T11:44:32.189Z,1009.56
2018-12-04T11:45:32.290Z,1009.68
2018-12-04T11:46:32.367Z,1009.65
2018-12-04T11:47:32.453Z,1009.64
2018-12-04T11:48:32.528Z,1009.66
2018-12-04T11:49:32.612Z,1009.67
2018-12-04T11:50:32.689Z,1009.68
2018-12-04T11:51:32.814Z,1009.67
2018-12-04T11:52:32.864Z,1009.72
2018-12-04T11:53:32.929Z,1009.84
2018-12-04T11:54:33.010Z,1009.78
2018-12-04T11:55:33.092Z,1009.82
2018-12-04T11:56:33.172Z,1009.75
2018-12-04T11:57:33.327Z,1009.82
2018-12-04T11:58:33.344Z,1009.78
2018-12-04T11:59:33.421Z,1009.85
2018-12-04T12:00:33.520Z,1009.91
2018-12-04T12:01:33.585Z,1009.95
2018-12-04T12:02:33.681Z,1009.98
2018-12-04T12:03:33.756Z,1009.96
2018-12-04T12:04:33.836Z,1009.97
2018-12-04T12:05:33.918Z,1010.07
2018-12-04T12:06:34.000Z,1009.98
2018-12-04T12:07:34.090Z,1010.00
2018-12-04T12:08:34.210Z,1009.99
2018-12-04T12:09:34.255Z,1010.02
2018-12-04T12:10:34.328Z,1010.11
2018-12-04T12:11:34.413Z,1010.01
2018-12-04T12:12:34.510Z,1009.88
2018-12-04T12:13:34.583Z,1009.97
2018-12-04T12:14:34.657Z,1010.01
2018-12-04T12:15:34.735Z,1010.07